createdAt,value
2023-05-20T00:00:07.883Z,12.80
2023-05-20T00:02:55.411Z,13.27
2023-05-20T00:05:22.618Z,13.15
2023-05-20T00:07:50.006Z,14.68
2023-05-20T00:10:17.445Z,14.07
2023-05-20T00:12:45.045Z,15.90
2023-05-20T00:15:14.710Z,14.65
2023-05-20T00:17:42.029Z,16.48
2023-05-20T00:20:09.625Z,16.00
2023-05-20T00:22:36.996Z,14.50
2023-05-20T00:25:04.391Z,15.68
2023-05-20T00:27:31.780Z,15.02
2023-05-20T00:29:58.967Z,14.10
2023-05-20T00:32:26.610Z,13.82
2023-05-20T00:35:01.320Z,15.20
2023-05-20T00:37:29.388Z,15.15
2023-05-20T00:39:56.721Z,15.38
2023-05-20T00:42:27.610Z,14.95
2023-05-20T00:44:56.942Z,14.77
2023-05-20T00:47:30.623Z,15.38
2023-05-20T00:49:58.668Z,14.20
2023-05-20T00:52:27.656Z,14.50
2023-05-20T00:54:54.769Z,14.05
2023-05-20T00:57:22.094Z,14.48
2023-05-20T00:59:49.194Z,14.18
2023-05-20T01:02:16.819Z,13.45
2023-05-20T01:04:47.401Z,14.52
2023-05-20T01:07:18.599Z,14.57
2023-05-20T01:09:46.363Z,14.82
2023-05-20T01:12:21.277Z,14.63
2023-05-20T01:15:06.126Z,15.63
2023-05-20T01:17:45.580Z,13.85
2023-05-20T01:20:16.361Z,14.85
2023-05-20T01:22:51.110Z,13.88
2023-05-20T01:25:18.410Z,14.43
2023-05-20T01:27:49.211Z,13.93
2023-05-20T01:30:17.247Z,14.80
2023-05-20T01:33:13.575Z,13.70
2023-05-20T01:35:43.218Z,14.60
2023-05-20T01:38:12.841Z,15.23
2023-05-20T01:40:42.783Z,15.35
2023-05-20T01:43:11.085Z,14.38
2023-05-20T01:45:39.890Z,13.55
2023-05-20T01:48:07.349Z,14.02
2023-05-20T01:50:34.556Z,13.20
2023-05-20T01:53:02.004Z,14.68
2023-05-20T01:55:29.224Z,14.73
2023-05-20T01:57:56.682Z,15.82
2023-05-20T02:00:24.196Z,13.95
2023-05-20T02:02:52.089Z,13.90
2023-05-20T02:05:19.218Z,13.23
2023-05-20T02:07:46.697Z,13.23
2023-05-20T02:10:13.878Z,12.68
2023-05-20T02:12:41.339Z,13.32
2023-05-20T02:15:08.958Z,13.63
2023-05-20T02:17:37.733Z,13.90
2023-05-20T02:20:07.891Z,13.40
2023-05-20T02:22:35.177Z,13.65
2023-05-20T02:25:03.390Z,13.50
2023-05-20T02:27:30.781Z,12.98
2023-05-20T02:29:58.017Z,13.00
2023-05-20T02:32:28.196Z,13.05
2023-05-20T02:34:56.114Z,13.35
2023-05-20T02:37:23.390Z,13.82
2023-05-20T02:39:50.724Z,12.98
2023-05-20T02:42:18.034Z,13.85
2023-05-20T02:44:45.261Z,13.32
2023-05-20T02:47:14.287Z,13.45
2023-05-20T02:49:41.507Z,13.57
2023-05-20T02:52:09.055Z,13.75
2023-05-20T02:54:36.223Z,12.88
2023-05-20T02:57:03.684Z,15.40
2023-05-20T02:59:30.715Z,14.75
2023-05-20T03:01:58.205Z,14.48
2023-05-20T03:04:27.127Z,15.00
2023-05-20T03:06:57.946Z,14.95
2023-05-20T03:09:25.472Z,15.48
2023-05-20T03:11:52.918Z,13.93
2023-05-20T03:14:20.182Z,15.52
2023-05-20T03:16:47.718Z,15.32
2023-05-20T03:19:15.034Z,14.55
2023-05-20T03:21:44.110Z,13.43
2023-05-20T03:24:11.137Z,14.35
2023-05-20T03:26:43.174Z,14.63
2023-05-20T03:29:13.229Z,15.43
2023-05-20T03:31:41.103Z,13.70
2023-05-20T03:34:08.489Z,13.45
2023-05-20T03:36:36.125Z,14.65
2023-05-20T03:39:04.305Z,14.23
2023-05-20T03:41:33.114Z,14.60
2023-05-20T03:44:00.749Z,14.77
2023-05-20T03:46:28.729Z,13.73
2023-05-20T03:48:55.934Z,14.23
2023-05-20T03:51:23.322Z,14.13
2023-05-20T03:53:50.674Z,14.93
2023-05-20T03:56:18.006Z,14.82
2023-05-20T03:58:45.256Z,15.35
2023-05-20T04:01:15.499Z,13.85
2023-05-20T04:03:43.906Z,14.57
2023-05-20T04:06:11.416Z,13.65
2023-05-20T04:08:38.470Z,14.80
2023-05-20T04:11:06.251Z,15.15
2023-05-20T04:13:33.488Z,14.90
2023-05-20T04:16:02.036Z,14.93
2023-05-20T04:18:32.328Z,14.95
2023-05-20T04:21:01.858Z,14.85
2023-05-20T04:23:29.283Z,15.45
2023-05-20T04:26:02.249Z,14.80
2023-05-20T04:28:31.473Z,15.30
2023-05-20T04:31:05.102Z,14.90
2023-05-20T04:33:33.130Z,14.63
2023-05-20T04:36:01.691Z,16.05
2023-05-20T04:38:32.600Z,14.63
2023-05-20T04:41:00.516Z,14.27
2023-05-20T04:43:30.326Z,15.05
2023-05-20T04:45:58.292Z,13.82
2023-05-20T04:48:25.940Z,15.95
2023-05-20T04:50:54.530Z,15.27
2023-05-20T04:53:24.788Z,15.05
2023-05-20T04:55:56.999Z,15.02
2023-05-20T04:58:25.144Z,15.38
2023-05-20T05:00:53.296Z,16.80
2023-05-20T05:03:20.412Z,15.48
2023-05-20T05:05:50.433Z,16.42
2023-05-20T05:08:32.169Z,15.48
2023-05-20T05:10:59.730Z,15.40
2023-05-20T05:13:26.877Z,14.65
2023-05-20T05:16:02.354Z,16.02
2023-05-20T05:21:05.678Z,15.73
2023-05-20T05:23:33.464Z,15.27
2023-05-20T05:26:01.184Z,14.93
2023-05-20T05:28:28.685Z,13.82
2023-05-20T05:30:57.126Z,14.82
2023-05-20T05:33:24.808Z,13.20
2023-05-20T05:35:52.349Z,14.07
2023-05-20T05:38:19.445Z,14.70
2023-05-20T05:40:46.631Z,13.40
2023-05-20T05:43:13.695Z,13.00
2023-05-20T05:45:42.876Z,13.98
2023-05-20T05:48:10.220Z,12.95
2023-05-20T05:50:38.053Z,13.52
2023-05-20T05:53:05.474Z,12.50
2023-05-20T05:55:33.474Z,13.45
2023-05-20T05:58:01.093Z,12.63
2023-05-20T06:00:28.559Z,13.00
2023-05-20T06:02:56.473Z,15.05
2023-05-20T06:05:24.100Z,12.77
2023-05-20T06:07:51.367Z,14.77
2023-05-20T06:10:19.736Z,13.43
2023-05-20T06:12:46.767Z,13.50
2023-05-20T06:15:14.205Z,13.10
2023-05-20T06:17:41.843Z,14.50
2023-05-20T06:20:09.846Z,14.07
2023-05-20T06:22:37.484Z,13.32
2023-05-20T06:25:06.835Z,14.10
2023-05-20T06:27:34.488Z,13.63
2023-05-20T06:30:03.347Z,13.30
2023-05-20T06:32:30.549Z,14.48
2023-05-20T06:34:59.497Z,14.75
2023-05-20T06:37:26.536Z,14.90
2023-05-20T06:39:54.179Z,14.82
2023-05-20T06:42:22.103Z,14.88
2023-05-20T06:44:49.978Z,14.68
2023-05-20T06:47:24.403Z,13.50
2023-05-20T06:49:52.871Z,14.98
2023-05-20T06:52:20.917Z,13.57
2023-05-20T06:54:48.232Z,13.25
2023-05-20T06:57:15.540Z,14.25
2023-05-20T06:59:43.574Z,14.65
2023-05-20T07:02:11.995Z,15.10
2023-05-20T07:04:39.518Z,13.45
2023-05-20T07:07:06.778Z,13.73
2023-05-20T07:09:34.576Z,14.27
2023-05-20T07:12:02.210Z,13.88
2023-05-20T07:14:29.759Z,13.20
2023-05-20T07:16:56.880Z,13.27
2023-05-20T07:19:24.502Z,13.48
2023-05-20T07:21:52.266Z,13.30
2023-05-20T07:24:19.771Z,14.40
2023-05-20T07:26:46.996Z,13.63
2023-05-20T07:29:14.600Z,13.35
2023-05-20T07:31:41.976Z,13.65
2023-05-20T07:34:15.278Z,12.73
2023-05-20T07:36:43.857Z,11.68
2023-05-20T07:39:14.971Z,12.00
2023-05-20T07:41:43.485Z,13.57
2023-05-20T07:44:12.749Z,13.30
2023-05-20T07:46:41.944Z,10.90
2023-05-20T07:49:10.009Z,13.57
2023-05-20T07:51:38.421Z,12.45
2023-05-20T07:54:07.589Z,12.70
2023-05-20T07:56:36.260Z,12.38
2023-05-20T07:59:04.361Z,12.35
2023-05-20T08:01:31.933Z,11.95
2023-05-20T08:03:59.872Z,12.73
2023-05-20T08:06:29.639Z,12.18
2023-05-20T08:08:57.250Z,12.25
2023-05-20T08:11:24.470Z,11.95
2023-05-20T08:13:51.929Z,11.48
2023-05-20T08:16:19.104Z,12.07
2023-05-20T08:18:46.633Z,12.00
2023-05-20T08:21:14.193Z,12.82
2023-05-20T08:23:41.610Z,12.05
2023-05-20T08:26:08.730Z,9.95
2023-05-20T08:28:38.131Z,11.60
2023-05-20T08:31:05.648Z,11.73
2023-05-20T08:33:33.037Z,11.45
2023-05-20T08:36:01.010Z,11.73
2023-05-20T08:38:28.597Z,11.60
2023-05-20T08:40:57.473Z,10.48
2023-05-20T08:43:25.784Z,11.07
2023-05-20T08:45:53.148Z,12.20
2023-05-20T08:48:25.916Z,10.45
2023-05-20T08:50:53.662Z,11.35
2023-05-20T08:53:23.832Z,11.20
2023-05-20T08:56:03.203Z,11.48
2023-05-20T08:58:33.071Z,10.77
2023-05-20T09:01:01.036Z,12.38
2023-05-20T09:03:28.981Z,12.02
2023-05-20T09:06:09.163Z,12.30
2023-05-20T09:08:36.792Z,11.10
2023-05-20T09:11:04.028Z,11.55
2023-05-20T09:13:35.203Z,10.65
2023-05-20T09:16:03.398Z,11.57
2023-05-20T09:18:31.523Z,10.55
2023-05-20T09:20:59.017Z,11.55
2023-05-20T09:23:27.995Z,10.65
2023-05-20T09:25:55.156Z,10.25
2023-05-20T09:28:27.679Z,10.52
2023-05-20T09:31:01.788Z,11.73
2023-05-20T09:33:32.315Z,10.05
2023-05-20T09:36:09.487Z,9.90
2023-05-20T09:38:40.087Z,9.80
2023-05-20T09:41:17.799Z,10.27
2023-05-20T09:43:46.191Z,9.82
2023-05-20T09:46:15.139Z,10.00
2023-05-20T09:48:44.187Z,8.70
2023-05-20T09:51:13.919Z,9.05
2023-05-20T09:53:43.094Z,8.90
2023-05-20T09:56:10.651Z,9.88
2023-05-20T09:58:40.405Z,9.52
2023-05-20T10:01:08.137Z,9.82
2023-05-20T10:03:36.064Z,8.40
2023-05-20T10:06:53.989Z,9.13
2023-05-20T10:09:55.275Z,10.10
2023-05-20T10:12:31.488Z,9.93
2023-05-20T10:15:21.898Z,9.70
2023-05-20T10:18:25.934Z,9.15
2023-05-20T10:20:53.940Z,9.10
2023-05-20T10:23:23.281Z,9.73
2023-05-20T10:25:53.507Z,9.80
2023-05-20T10:28:33.233Z,9.80
2023-05-20T10:31:01.043Z,9.10
2023-05-20T10:33:29.281Z,8.32
2023-05-20T10:36:01.257Z,10.45
2023-05-20T10:38:28.340Z,9.80
2023-05-20T10:40:57.492Z,9.95
2023-05-20T10:43:29.197Z,9.63
2023-05-20T10:45:58.762Z,9.05
2023-05-20T10:48:29.001Z,8.88
2023-05-20T10:51:04.943Z,8.88
2023-05-20T10:53:42.041Z,8.82
2023-05-20T10:56:24.466Z,9.00
2023-05-20T10:58:53.800Z,9.38
2023-05-20T11:01:27.032Z,8.80
2023-05-20T11:03:57.399Z,9.25
2023-05-20T11:06:29.070Z,9.57
2023-05-20T11:09:05.914Z,8.30
2023-05-20T11:11:33.282Z,8.82
2023-05-20T11:14:02.200Z,8.90
2023-05-20T11:16:29.876Z,8.68
2023-05-20T11:18:57.379Z,9.20
2023-05-20T11:21:24.777Z,8.70
2023-05-20T11:23:52.542Z,9.20
2023-05-20T11:26:21.380Z,8.13
2023-05-20T11:28:48.569Z,8.48
2023-05-20T11:31:16.425Z,8.57
2023-05-20T11:33:44.066Z,9.23
2023-05-20T11:36:26.913Z,9.27
2023-05-20T11:38:57.894Z,9.02
2023-05-20T11:41:26.908Z,8.95
2023-05-20T11:44:00.891Z,8.23
2023-05-20T11:46:28.835Z,8.40
2023-05-20T11:48:57.705Z,8.02
2023-05-20T11:51:28.056Z,8.07
2023-05-20T11:54:07.084Z,8.38
2023-05-20T11:56:39.601Z,9.02
2023-05-20T11:59:08.464Z,8.52
2023-05-20T12:01:43.573Z,9.35
2023-05-20T12:04:12.076Z,8.30
2023-05-20T12:06:40.142Z,7.85
2023-05-20T12:09:08.748Z,8.00
2023-05-20T12:11:41.592Z,8.13
2023-05-20T12:14:09.813Z,8.75
2023-05-20T12:16:38.184Z,10.15
2023-05-20T12:19:05.822Z,9.05
2023-05-20T12:21:33.298Z,9.80
2023-05-20T12:24:01.142Z,8.93
2023-05-20T12:26:30.143Z,8.95
2023-05-20T12:28:57.653Z,8.32
2023-05-20T12:31:26.019Z,8.10
2023-05-20T12:33:53.135Z,8.45
2023-05-20T12:36:20.817Z,8.25
2023-05-20T12:38:47.915Z,9.05
2023-05-20T12:41:15.559Z,8.55
2023-05-20T12:43:42.544Z,8.35
2023-05-20T12:46:10.148Z,7.97
2023-05-20T12:48:37.484Z,7.00
2023-05-20T12:51:05.601Z,8.60
2023-05-20T12:53:32.673Z,7.43
2023-05-20T12:56:01.173Z,8.60
2023-05-20T12:58:28.204Z,7.55
2023-05-20T13:00:55.537Z,8.38
2023-05-20T13:03:23.060Z,7.55
2023-05-20T13:05:50.645Z,7.30
2023-05-20T13:08:17.693Z,8.13
2023-05-20T13:10:45.289Z,7.55
2023-05-20T13:13:13.896Z,9.10
2023-05-20T13:15:41.431Z,7.18
2023-05-20T13:18:08.484Z,7.65
2023-05-20T13:20:37.504Z,8.07
2023-05-20T13:23:04.787Z,7.65
2023-05-20T13:25:32.137Z,7.25
2023-05-20T13:27:59.213Z,7.55
2023-05-20T13:30:28.367Z,8.10
2023-05-20T13:32:55.594Z,7.57
2023-05-20T13:35:23.102Z,7.97
2023-05-20T13:37:50.158Z,8.25
2023-05-20T13:40:17.579Z,7.85
2023-05-20T13:42:44.484Z,6.85
2023-05-20T13:45:12.116Z,7.57
2023-05-20T13:47:39.200Z,7.95
2023-05-20T13:50:07.566Z,8.40
2023-05-20T13:52:34.614Z,8.07
2023-05-20T13:55:02.472Z,8.20
2023-05-20T13:57:29.539Z,6.45
2023-05-20T13:59:56.963Z,7.65
2023-05-20T14:02:23.947Z,6.40
2023-05-20T14:04:51.392Z,6.35
2023-05-20T14:07:18.422Z,6.70
2023-05-20T14:09:45.666Z,6.47
2023-05-20T14:12:12.654Z,6.65
2023-05-20T14:14:40.378Z,7.00
2023-05-20T14:17:07.452Z,6.45
2023-05-20T14:19:35.218Z,6.25
2023-05-20T14:22:03.413Z,6.07
2023-05-20T14:24:30.885Z,6.47
2023-05-20T14:26:58.008Z,6.15
2023-05-20T14:29:25.947Z,6.70
2023-05-20T14:31:53.011Z,6.20
2023-05-20T14:34:21.506Z,6.10
2023-05-20T14:36:48.671Z,5.97
2023-05-20T14:39:17.088Z,6.30
2023-05-20T14:41:44.295Z,5.72
2023-05-20T14:44:11.639Z,5.68
2023-05-20T14:46:39.143Z,6.47
2023-05-20T14:49:06.569Z,5.40
2023-05-20T14:51:34.718Z,5.95
2023-05-20T14:54:02.121Z,5.82
2023-05-20T14:56:29.350Z,5.78
2023-05-20T14:58:56.781Z,6.15
2023-05-20T15:01:23.834Z,5.50
2023-05-20T15:03:51.490Z,5.40
2023-05-20T15:06:18.957Z,5.32
2023-05-20T15:08:46.320Z,5.55
2023-05-20T15:11:14.288Z,5.10
2023-05-20T15:13:42.020Z,5.90
2023-05-20T15:16:09.684Z,5.60
2023-05-20T15:18:37.048Z,5.72
2023-05-20T15:21:04.310Z,6.05
2023-05-20T15:23:31.720Z,6.25
2023-05-20T15:25:58.823Z,5.93
2023-05-20T15:28:26.278Z,5.60
2023-05-20T15:30:56.515Z,5.60
2023-05-20T15:33:24.212Z,5.20
2023-05-20T15:35:51.421Z,5.40
2023-05-20T15:38:18.652Z,5.75
2023-05-20T15:40:45.959Z,4.93
2023-05-20T15:43:13.688Z,6.20
2023-05-20T15:45:40.722Z,5.75
2023-05-20T15:48:08.523Z,5.70
2023-05-20T15:50:37.131Z,5.70
2023-05-20T15:53:09.502Z,5.22
2023-05-20T15:55:36.904Z,5.70
2023-05-20T15:58:04.690Z,5.70
2023-05-20T16:00:34.000Z,5.65
2023-05-20T16:03:02.100Z,5.63
2023-05-20T16:05:30.038Z,5.57
2023-05-20T16:07:57.442Z,5.63
2023-05-20T16:10:31.341Z,5.82
2023-05-20T16:13:02.446Z,6.55
2023-05-20T16:15:35.741Z,6.60
2023-05-20T16:18:03.403Z,5.53
2023-05-20T16:20:30.559Z,5.57
2023-05-20T16:22:57.890Z,6.38
2023-05-20T16:25:24.913Z,6.70
2023-05-20T16:27:52.291Z,6.38
2023-05-20T16:30:19.447Z,5.22
2023-05-20T16:32:47.059Z,5.68
2023-05-20T16:35:16.653Z,6.20
2023-05-20T16:37:44.586Z,6.15
2023-05-20T16:40:12.223Z,5.75
2023-05-20T16:42:39.914Z,5.47
2023-05-20T16:45:07.942Z,6.28
2023-05-20T16:47:37.071Z,6.20
2023-05-20T16:50:05.233Z,6.45
2023-05-20T16:52:35.376Z,6.50
2023-05-20T16:55:04.566Z,5.72
2023-05-20T16:57:32.660Z,5.60
2023-05-20T17:00:00.114Z,6.10
2023-05-20T17:02:27.364Z,5.30
2023-05-20T17:04:54.605Z,5.90
2023-05-20T17:07:21.893Z,6.22
2023-05-20T17:09:48.918Z,7.18
2023-05-20T17:12:17.011Z,5.88
2023-05-20T17:14:44.369Z,6.13
2023-05-20T17:17:14.045Z,6.28
2023-05-20T17:19:41.326Z,5.45
2023-05-20T17:22:08.713Z,6.03
2023-05-20T17:24:36.022Z,6.50
2023-05-20T17:27:03.901Z,5.82
2023-05-20T17:29:31.826Z,6.45
2023-05-20T17:31:59.534Z,5.90
2023-05-20T17:34:26.718Z,6.40
2023-05-20T17:36:54.223Z,5.88
2023-05-20T17:39:21.564Z,6.63
2023-05-20T17:41:48.926Z,6.28
2023-05-20T17:44:16.256Z,6.03
2023-05-20T17:46:43.929Z,5.68
2023-05-20T17:49:11.604Z,7.07
2023-05-20T17:51:39.919Z,6.20
2023-05-20T17:54:07.089Z,6.90
2023-05-20T17:56:34.655Z,6.03
2023-05-20T17:59:01.884Z,6.32
2023-05-20T18:01:29.703Z,6.13
2023-05-20T18:03:58.400Z,6.20
2023-05-20T18:06:26.517Z,6.05
2023-05-20T18:08:53.511Z,6.43
2023-05-20T18:11:21.243Z,6.68
2023-05-20T18:13:48.301Z,6.00
2023-05-20T18:16:15.867Z,6.40
2023-05-20T18:18:42.873Z,6.22
2023-05-20T18:21:11.472Z,7.50
2023-05-20T18:23:38.476Z,7.68
2023-05-20T18:26:06.998Z,7.55
2023-05-20T18:28:34.094Z,7.68
2023-05-20T18:31:01.622Z,8.65
2023-05-20T18:33:28.643Z,9.25
2023-05-20T18:35:55.983Z,10.45
2023-05-20T18:38:23.538Z,10.30
2023-05-20T18:40:50.966Z,11.20
2023-05-20T18:43:18.301Z,12.32
2023-05-20T18:45:46.360Z,11.68
2023-05-20T18:48:20.235Z,11.85
2023-05-20T18:50:53.385Z,12.93
2023-05-20T18:53:20.401Z,12.75
2023-05-20T18:55:48.723Z,13.05
2023-05-20T18:58:16.058Z,14.60
2023-05-20T19:00:43.466Z,15.25
2023-05-20T19:03:10.476Z,14.95
2023-05-20T19:05:38.099Z,14.93
2023-05-20T19:08:06.104Z,16.30
2023-05-20T19:10:33.498Z,16.73
2023-05-20T19:13:01.871Z,16.83
2023-05-20T19:15:31.275Z,16.50
2023-05-20T19:17:58.285Z,16.08
2023-05-20T19:20:25.799Z,16.48
2023-05-20T19:22:52.873Z,16.25
2023-05-20T19:25:20.275Z,16.98
2023-05-20T19:27:47.538Z,16.65
2023-05-20T19:30:14.996Z,16.02
2023-05-20T19:32:42.256Z,15.80
2023-05-20T19:35:09.848Z,16.17
2023-05-20T19:37:36.830Z,16.52
2023-05-20T19:40:04.637Z,16.38
2023-05-20T19:42:31.668Z,16.17
2023-05-20T19:44:59.153Z,16.10
2023-05-20T19:47:28.199Z,16.90
2023-05-20T19:49:55.653Z,16.42
2023-05-20T19:52:22.968Z,16.67
2023-05-20T19:54:50.488Z,17.30
2023-05-20T19:57:17.410Z,17.58
2023-05-20T19:59:44.772Z,16.58
2023-05-20T20:02:11.860Z,17.13
2023-05-20T20:04:39.149Z,16.95
2023-05-20T20:07:08.194Z,17.63
2023-05-20T20:09:36.286Z,16.75
2023-05-20T20:12:04.425Z,17.35
2023-05-20T20:14:32.237Z,16.90
2023-05-20T20:16:59.870Z,18.17
2023-05-20T20:19:28.629Z,17.73
2023-05-20T20:21:56.772Z,16.67
2023-05-20T20:24:24.615Z,18.35
2023-05-20T20:26:54.177Z,18.00
2023-05-20T20:29:22.537Z,18.10
2023-05-20T20:31:49.797Z,17.40
2023-05-20T20:34:17.465Z,17.65
2023-05-20T20:36:47.592Z,18.77
2023-05-20T20:39:19.033Z,18.83
2023-05-20T20:41:51.537Z,18.67
2023-05-20T20:44:21.072Z,18.77
2023-05-20T20:46:52.441Z,17.15
2023-05-20T20:49:21.364Z,18.75
2023-05-20T20:51:50.051Z,17.02
2023-05-20T20:54:17.601Z,19.15
2023-05-20T20:56:47.086Z,17.80
2023-05-20T20:59:16.068Z,17.90
2023-05-20T21:01:44.846Z,18.40
2023-05-20T21:04:13.922Z,18.48
2023-05-20T21:06:47.468Z,18.95
2023-05-20T21:09:15.892Z,17.60
2023-05-20T21:11:45.285Z,18.95
2023-05-20T21:14:13.324Z,17.67
2023-05-20T21:16:42.216Z,18.23
2023-05-20T21:19:10.044Z,17.73
2023-05-20T21:21:37.169Z,18.17
2023-05-20T21:24:06.495Z,18.02
2023-05-20T21:26:33.622Z,17.08
2023-05-20T21:29:01.851Z,19.80
2023-05-20T21:31:29.933Z,18.73
2023-05-20T21:33:57.751Z,17.77
2023-05-20T21:36:25.042Z,19.48
2023-05-20T21:38:52.462Z,18.13
2023-05-20T21:41:20.427Z,18.60
2023-05-20T21:43:47.984Z,19.10
2023-05-20T21:46:15.124Z,19.98
2023-05-20T21:48:42.382Z,19.23
2023-05-20T21:51:10.560Z,18.75
2023-05-20T21:53:38.710Z,19.58
2023-05-20T21:56:06.103Z,19.33
2023-05-20T21:58:34.720Z,19.73
2023-05-20T22:01:01.658Z,20.13
2023-05-20T22:03:29.353Z,19.50
2023-05-20T22:05:57.191Z,20.23
2023-05-20T22:08:26.473Z,20.30
2023-05-20T22:10:53.495Z,19.08
2023-05-20T22:13:21.017Z,19.30
2023-05-20T22:15:48.164Z,18.30
2023-05-20T22:18:15.617Z,19.63
2023-05-20T22:20:42.657Z,19.67
2023-05-20T22:23:10.077Z,18.75
2023-05-20T22:25:39.391Z,20.02
2023-05-20T22:28:06.768Z,18.40
2023-05-20T22:30:34.429Z,19.02
2023-05-20T22:33:02.187Z,19.50
2023-05-20T22:35:29.183Z,21.73
2023-05-20T22:37:57.360Z,19.20
2023-05-20T22:40:24.318Z,20.20
2023-05-20T22:42:51.658Z,22.05
2023-05-20T22:45:18.932Z,20.90
2023-05-20T22:47:46.908Z,19.63
2023-05-20T22:50:14.062Z,21.15
2023-05-20T22:52:41.855Z,20.90
2023-05-20T22:55:09.966Z,20.67
2023-05-20T22:57:37.675Z,20.85
2023-05-20T23:00:08.491Z,21.17
2023-05-20T23:02:36.587Z,21.10
2023-05-20T23:05:04.265Z,21.60
2023-05-20T23:07:32.017Z,21.30
2023-05-20T23:09:59.082Z,21.52
2023-05-20T23:12:26.342Z,21.75
2023-05-20T23:14:53.304Z,20.92
2023-05-20T23:17:20.789Z,22.05
2023-05-20T23:19:50.302Z,22.30
2023-05-20T23:22:19.667Z,21.02
2023-05-20T23:24:49.152Z,22.27
2023-05-20T23:27:18.556Z,25.10
2023-05-20T23:29:47.285Z,21.95
2023-05-20T23:32:15.286Z,21.70
2023-05-20T23:34:43.629Z,23.67
2023-05-20T23:37:10.995Z,20.58
2023-05-20T23:39:38.233Z,21.30
2023-05-20T23:42:05.676Z,21.30
2023-05-20T23:44:32.795Z,22.00
2023-05-20T23:47:00.913Z,22.15
2023-05-20T23:49:29.747Z,22.77
2023-05-20T23:51:57.167Z,21.95
2023-05-20T23:54:24.132Z,22.48
2023-05-20T23:56:51.615Z,22.92
2023-05-20T23:59:18.699Z,22.88
